createdAt,value
2023-05-08T04:55:11.921Z,7.68
2023-05-08T05:00:16.622Z,8.45
2023-05-08T05:05:20.507Z,9.18
2023-05-08T05:10:25.269Z,8.25
2023-05-08T05:15:28.717Z,8.65
2023-05-08T05:20:32.335Z,8.35
2023-05-08T05:25:37.589Z,9.35
2023-05-08T05:30:41.039Z,8.45
2023-05-08T05:35:44.461Z,9.10
2023-05-08T05:40:49.162Z,9.93
2023-05-08T05:45:52.577Z,8.60
2023-05-08T05:50:56.117Z,8.05
2023-05-08T05:56:01.392Z,8.10
2023-05-08T06:01:05.141Z,6.75
2023-05-08T06:06:08.941Z,6.70
2023-05-08T06:11:14.046Z,7.03
2023-05-08T06:16:17.550Z,6.43
2023-05-08T06:21:21.214Z,6.28
2023-05-08T06:26:26.256Z,5.50
2023-05-08T06:31:29.758Z,5.60
2023-05-08T06:36:33.264Z,5.15
2023-05-08T06:41:38.405Z,5.30
2023-05-08T06:46:42.188Z,4.88
2023-05-08T06:51:45.707Z,5.25
2023-05-08T06:56:50.439Z,4.70
2023-05-08T07:01:53.916Z,4.55
2023-05-08T07:06:57.443Z,4.60
2023-05-08T07:12:02.322Z,4.60
2023-05-08T07:17:07.408Z,4.50
2023-05-08T07:22:11.189Z,4.95
2023-05-08T07:27:16.667Z,4.20
2023-05-08T07:32:20.102Z,3.88
2023-05-08T07:37:24.064Z,4.03
2023-05-08T07:42:29.118Z,3.35
2023-05-08T07:47:32.909Z,3.95
2023-05-08T07:52:36.846Z,3.78
2023-05-08T07:57:43.146Z,3.30
2023-05-08T08:02:47.098Z,3.15
2023-05-08T08:07:50.693Z,3.53
2023-05-08T08:12:55.566Z,4.03
2023-05-08T08:17:59.079Z,4.03
2023-05-08T08:23:02.978Z,3.08
2023-05-08T08:28:07.774Z,3.70
2023-05-08T08:33:11.480Z,3.67
2023-05-08T08:38:15.224Z,4.07
2023-05-08T08:43:20.261Z,3.90
2023-05-08T08:48:29.071Z,4.00
2023-05-08T08:53:36.851Z,4.25
2023-05-08T08:58:50.230Z,4.25
2023-05-08T09:03:54.106Z,4.43
2023-05-08T09:08:58.194Z,4.45
2023-05-08T09:14:03.581Z,4.25
2023-05-08T09:19:07.408Z,3.55
2023-05-08T09:24:11.526Z,4.07
2023-05-08T09:29:17.390Z,4.35
2023-05-08T09:34:27.133Z,4.80
2023-05-08T09:39:30.497Z,4.68
2023-05-08T09:44:47.272Z,4.03
2023-05-08T09:49:58.977Z,3.92
2023-05-08T09:55:03.889Z,4.72
2023-05-08T10:00:10.744Z,4.60
2023-05-08T10:05:25.508Z,4.47
2023-05-08T10:10:30.967Z,4.47
2023-05-08T10:15:38.664Z,4.65
2023-05-08T10:20:44.469Z,4.80
2023-05-08T10:25:49.413Z,4.80
2023-05-08T10:30:58.788Z,4.65
2023-05-08T10:36:02.798Z,6.32
2023-05-08T10:41:07.374Z,5.03
2023-05-08T10:46:17.922Z,4.32
2023-05-08T10:51:33.851Z,4.00
2023-05-08T10:56:39.629Z,6.78
2023-05-08T11:01:48.165Z,4.75
2023-05-08T11:06:53.357Z,4.80
2023-05-08T11:12:09.640Z,4.82
2023-05-08T11:17:14.413Z,5.72
2023-05-08T11:22:26.905Z,4.10
2023-05-08T11:28:19.664Z,3.40
2023-05-08T11:33:24.905Z,4.35
2023-05-08T11:38:34.213Z,3.33
2023-05-08T11:44:15.306Z,5.47
2023-05-08T11:49:26.094Z,3.65
2023-05-08T11:54:32.701Z,3.25
2023-05-08T11:59:37.762Z,3.00
2023-05-08T12:04:46.955Z,3.03
2023-05-08T12:09:51.572Z,2.83
2023-05-08T12:14:55.293Z,2.67
2023-05-08T12:20:11.240Z,2.75
2023-05-08T12:25:15.724Z,2.70
2023-05-08T12:30:19.883Z,2.35
2023-05-08T12:35:25.247Z,2.78
2023-05-08T12:40:30.115Z,2.90
2023-05-08T12:45:38.615Z,3.13
2023-05-08T12:50:45.329Z,3.38
2023-05-08T12:55:53.593Z,2.78
2023-05-08T13:01:07.238Z,2.67
2023-05-08T13:06:22.478Z,2.70
2023-05-08T13:11:33.295Z,3.13
2023-05-08T13:16:44.147Z,2.92
2023-05-08T13:21:49.542Z,3.15
2023-05-08T13:26:53.239Z,2.67
2023-05-08T13:31:56.613Z,2.55
2023-05-08T13:37:01.626Z,2.50
2023-05-08T13:42:05.261Z,3.08
2023-05-08T13:47:08.666Z,2.72
2023-05-08T13:52:13.430Z,2.50
2023-05-08T13:57:16.907Z,1.95
2023-05-08T14:02:20.539Z,2.65
2023-05-08T14:07:26.205Z,2.17
2023-05-08T14:12:29.870Z,2.00
2023-05-08T14:17:33.814Z,2.60
2023-05-08T14:22:38.576Z,2.58
2023-05-08T14:27:42.045Z,2.95
2023-05-08T14:32:46.358Z,2.00
2023-05-08T14:37:51.421Z,2.40
2023-05-08T14:42:54.804Z,2.10
2023-05-08T14:47:58.545Z,2.00
2023-05-08T14:53:03.415Z,1.80
2023-05-08T14:58:06.948Z,1.75
2023-05-08T15:03:10.588Z,1.65
2023-05-08T15:08:15.823Z,1.50
2023-05-08T15:13:19.323Z,1.83
2023-05-08T15:18:24.595Z,2.13
2023-05-08T15:23:29.356Z,1.80
2023-05-08T15:28:33.251Z,2.15
2023-05-08T15:33:37.029Z,1.85
2023-05-08T15:38:42.373Z,1.65
2023-05-08T15:43:46.193Z,1.77
2023-05-08T15:48:49.566Z,1.48
2023-05-08T15:53:54.408Z,1.77
2023-05-08T15:58:57.855Z,1.98
2023-05-08T16:04:01.221Z,1.85
2023-05-08T16:09:06.043Z,1.80
2023-05-08T16:14:09.490Z,1.92
2023-05-08T16:19:12.947Z,1.85
2023-05-08T16:24:17.726Z,1.95
2023-05-08T16:29:21.145Z,1.88
2023-05-08T16:34:24.829Z,2.00
2023-05-08T16:39:29.610Z,2.60
2023-05-08T16:44:33.509Z,1.90
2023-05-08T16:49:37.263Z,1.80
2023-05-08T16:54:42.231Z,2.22
2023-05-08T16:59:45.602Z,2.92
2023-05-08T17:04:49.828Z,1.83
2023-05-08T17:09:59.048Z,2.72
2023-05-08T17:15:02.716Z,1.67
2023-05-08T17:20:07.432Z,1.83
2023-05-08T17:25:12.261Z,2.30
2023-05-08T17:30:17.022Z,2.03
2023-05-08T17:35:21.833Z,2.17
2023-05-08T17:40:28.819Z,3.92
2023-05-08T17:45:32.490Z,3.25
2023-05-08T17:50:36.233Z,2.60
2023-05-08T17:55:41.089Z,2.72
2023-05-08T18:00:44.582Z,5.32
2023-05-08T18:05:48.382Z,2.42
2023-05-08T18:10:53.174Z,2.40
2023-05-08T18:15:56.857Z,2.30
2023-05-08T18:21:00.585Z,2.28
2023-05-08T18:26:05.851Z,2.20
2023-05-08T18:31:09.380Z,2.78
2023-05-08T18:36:12.804Z,5.15
2023-05-08T18:41:17.963Z,3.58
2023-05-08T18:46:21.406Z,4.20
2023-05-08T18:51:24.845Z,4.95
2023-05-08T18:56:29.613Z,7.03
2023-05-08T19:01:33.100Z,6.88
2023-05-08T19:06:37.563Z,7.20
2023-05-08T19:11:43.006Z,5.22
2023-05-08T19:16:46.495Z,4.65
2023-05-08T19:21:49.988Z,8.73
2023-05-08T19:26:55.089Z,4.03
2023-05-08T19:31:58.614Z,4.30
2023-05-08T19:37:02.970Z,3.67
2023-05-08T19:42:10.303Z,3.00
2023-05-08T19:47:13.961Z,3.97
2023-05-08T19:52:17.378Z,5.30
2023-05-08T19:57:22.195Z,4.88
2023-05-08T20:02:25.689Z,7.93
2023-05-08T20:07:30.479Z,14.88
2023-05-08T20:12:35.629Z,11.88
2023-05-08T20:17:40.560Z,14.98
2023-05-08T20:22:44.141Z,12.18
2023-05-08T20:27:49.258Z,9.25
2023-05-08T20:32:53.699Z,8.45
2023-05-08T20:37:58.159Z,8.07
2023-05-08T20:43:03.140Z,7.10
2023-05-08T20:48:06.929Z,7.15
2023-05-08T20:53:11.600Z,7.28
2023-05-08T20:58:19.793Z,5.90
2023-05-08T21:03:23.407Z,8.50
2023-05-08T21:08:27.675Z,7.57
2023-05-08T21:13:32.497Z,6.82
2023-05-08T21:18:38.831Z,6.75
2023-05-08T21:23:42.591Z,8.05
2023-05-08T21:28:47.734Z,6.22
2023-05-08T21:33:52.031Z,6.18
2023-05-08T21:38:56.299Z,6.18
2023-05-08T21:44:01.157Z,6.15
2023-05-08T21:49:05.078Z,5.90
2023-05-08T21:54:08.577Z,5.80
2023-05-08T21:59:13.686Z,4.85
2023-05-08T22:04:17.104Z,6.07
2023-05-08T22:09:20.804Z,5.63
2023-05-08T22:14:25.650Z,5.45
2023-05-08T22:19:29.052Z,5.57
2023-05-08T22:24:32.512Z,5.60
2023-05-08T22:29:37.494Z,5.70
